createdAt,value
2019-02-21T00:02:19.407Z,24.77
2019-02-21T00:04:48.589Z,24.50
2019-02-21T00:07:17.847Z,22.53
2019-02-21T00:09:47.232Z,23.43
2019-02-21T00:12:16.421Z,24.63
2019-02-21T00:14:45.860Z,24.57
2019-02-21T00:17:15.171Z,24.07
2019-02-21T00:19:44.553Z,22.27
2019-02-21T00:22:14.140Z,22.23
2019-02-21T00:24:43.341Z,23.20
2019-02-21T00:27:12.473Z,23.53
2019-02-21T00:29:41.681Z,23.67
2019-02-21T00:32:10.869Z,24.43
2019-02-21T00:34:40.046Z,23.97
2019-02-21T00:37:09.275Z,25.80
2019-02-21T00:39:38.486Z,25.13
2019-02-21T00:42:07.655Z,23.27
2019-02-21T00:44:36.822Z,26.30
2019-02-21T00:47:06.117Z,25.43
2019-02-21T00:49:36.346Z,24.20
2019-02-21T00:52:05.515Z,23.73
2019-02-21T00:54:34.723Z,24.40
2019-02-21T00:57:03.946Z,24.77
2019-02-21T00:59:33.114Z,24.37
2019-02-21T01:02:02.574Z,24.70
2019-02-21T01:04:31.733Z,24.47
2019-02-21T01:07:00.928Z,23.77
2019-02-21T01:09:30.214Z,24.93
2019-02-21T01:11:59.462Z,25.03
2019-02-21T01:14:29.110Z,25.17
2019-02-21T01:16:58.314Z,23.53
2019-02-21T01:19:27.472Z,23.93
2019-02-21T01:21:56.911Z,23.30
2019-02-21T01:24:26.114Z,24.07
2019-02-21T01:26:55.340Z,24.77
2019-02-21T01:29:26.422Z,24.10
2019-02-21T01:31:55.607Z,24.10
2019-02-21T01:34:24.786Z,24.97
2019-02-21T01:36:54.093Z,23.90
2019-02-21T01:39:23.339Z,23.53
2019-02-21T01:41:52.516Z,23.37
2019-02-21T01:44:22.122Z,24.43
2019-02-21T01:46:51.354Z,23.53
2019-02-21T01:49:20.522Z,23.93
2019-02-21T01:51:50.069Z,24.10
2019-02-21T01:54:19.250Z,25.70
2019-02-21T01:56:48.428Z,24.37
2019-02-21T01:59:17.885Z,24.80
2019-02-21T02:01:47.056Z,24.37
2019-02-21T02:04:16.223Z,24.93
2019-02-21T02:06:45.434Z,23.63
2019-02-21T02:09:15.018Z,23.43
2019-02-21T02:11:44.178Z,24.17
2019-02-21T02:14:13.381Z,24.27
2019-02-21T02:16:42.539Z,24.60
2019-02-21T02:19:11.967Z,24.93
2019-02-21T02:21:41.490Z,24.57
2019-02-21T02:24:10.685Z,24.50
2019-02-21T02:26:39.924Z,23.83
2019-02-21T02:29:09.258Z,24.33
2019-02-21T02:31:38.422Z,24.43
2019-02-21T02:34:07.870Z,24.47
2019-02-21T02:36:37.081Z,22.37
2019-02-21T02:39:06.485Z,24.50
2019-02-21T02:41:36.447Z,24.73
2019-02-21T02:44:05.705Z,25.80
2019-02-21T02:46:34.852Z,26.60
2019-02-21T02:49:04.186Z,24.33
2019-02-21T02:51:33.610Z,26.50
2019-02-21T02:54:03.022Z,25.13
2019-02-21T02:56:32.269Z,26.07
2019-02-21T02:59:01.592Z,25.60
2019-02-21T03:01:34.745Z,25.70
2019-02-21T03:04:01.788Z,25.70
2019-02-21T03:06:31.137Z,26.17
2019-02-21T03:09:00.350Z,25.77
2019-02-21T03:11:31.595Z,26.63
2019-02-21T03:14:00.826Z,25.80
2019-02-21T03:16:30.080Z,25.63
2019-02-21T03:18:59.477Z,25.93
2019-02-21T03:21:28.712Z,25.13
2019-02-21T03:23:57.911Z,24.17
2019-02-21T03:26:27.330Z,25.70
2019-02-21T03:28:56.596Z,25.13
2019-02-21T03:31:26.287Z,26.57
2019-02-21T03:33:55.883Z,26.43
2019-02-21T03:36:25.399Z,24.27
2019-02-21T03:38:54.665Z,26.07
2019-02-21T03:41:23.934Z,24.87
2019-02-21T03:43:53.179Z,25.50
2019-02-21T03:46:22.414Z,24.03
2019-02-21T03:48:51.618Z,24.73
2019-02-21T03:51:20.784Z,24.70
2019-02-21T03:53:50.967Z,23.20
2019-02-21T03:56:20.201Z,23.57
2019-02-21T03:58:49.383Z,24.97
2019-02-21T04:01:18.575Z,23.50
2019-02-21T04:03:47.756Z,23.37
2019-02-21T04:06:16.944Z,23.03
2019-02-21T04:08:46.195Z,23.30
2019-02-21T04:11:15.370Z,23.70
2019-02-21T04:13:44.549Z,23.60
2019-02-21T04:16:13.759Z,24.03
2019-02-21T04:18:42.921Z,24.73
2019-02-21T04:21:12.166Z,24.43
2019-02-21T04:23:41.527Z,24.73
2019-02-21T04:26:10.968Z,25.87
2019-02-21T04:28:40.237Z,24.30
2019-02-21T04:31:09.510Z,27.53
2019-02-21T04:33:38.679Z,29.70
2019-02-21T04:36:07.930Z,29.87
2019-02-21T04:38:37.203Z,28.97
2019-02-21T04:41:06.370Z,29.87
2019-02-21T04:43:35.617Z,28.70
2019-02-21T04:46:04.830Z,30.50
2019-02-21T04:48:34.312Z,29.77
2019-02-21T04:51:03.578Z,30.90
2019-02-21T04:53:32.853Z,31.07
2019-02-21T04:56:02.089Z,30.57
2019-02-21T04:58:31.265Z,33.40
2019-02-21T05:01:00.568Z,31.53
2019-02-21T05:03:29.875Z,31.07
2019-02-21T05:05:59.315Z,32.63
2019-02-21T05:08:28.959Z,33.80
2019-02-21T05:10:58.110Z,33.23
2019-02-21T05:13:27.274Z,33.33
2019-02-21T05:15:56.478Z,31.77
2019-02-21T05:18:25.634Z,34.97
2019-02-21T05:20:54.806Z,32.57
2019-02-21T05:23:24.042Z,34.07
2019-02-21T05:25:53.210Z,34.43
2019-02-21T05:28:30.999Z,34.33
2019-02-21T05:31:02.806Z,35.27
2019-02-21T05:33:43.164Z,33.23
2019-02-21T05:36:30.454Z,34.33
2019-02-21T05:39:04.449Z,33.87
2019-02-21T05:41:38.276Z,34.57
2019-02-21T05:44:09.106Z,35.33
2019-02-21T05:46:55.206Z,36.17
2019-02-21T05:49:38.334Z,35.07
2019-02-21T05:52:24.236Z,36.17
2019-02-21T05:55:04.223Z,34.00
2019-02-21T05:57:46.874Z,35.90
2019-02-21T06:00:17.710Z,34.67
2019-02-21T06:02:53.461Z,34.43
2019-02-21T06:05:23.574Z,35.20
2019-02-21T06:07:57.506Z,35.50
2019-02-21T06:10:37.954Z,35.77
2019-02-21T06:13:09.094Z,35.20
2019-02-21T06:15:45.844Z,34.93
2019-02-21T06:18:25.511Z,35.73
2019-02-21T06:20:59.342Z,34.07
2019-02-21T06:23:30.156Z,33.80
2019-02-21T06:26:06.738Z,35.13
2019-02-21T06:28:40.252Z,33.30
2019-02-21T06:31:10.234Z,34.00
2019-02-21T06:33:39.397Z,35.53
2019-02-21T06:36:08.642Z,35.47
2019-02-21T06:38:37.841Z,35.57
2019-02-21T06:41:07.427Z,34.03
2019-02-21T06:43:36.677Z,32.47
2019-02-21T06:46:06.091Z,32.77
2019-02-21T06:48:36.875Z,34.93
2019-02-21T06:51:06.149Z,34.50
2019-02-21T06:53:35.318Z,36.90
2019-02-21T06:56:04.573Z,33.53
2019-02-21T06:58:33.801Z,34.53
2019-02-21T07:01:03.043Z,33.33
2019-02-21T07:03:32.548Z,34.80
2019-02-21T07:06:01.812Z,33.07
2019-02-21T07:08:30.973Z,33.03
2019-02-21T07:11:06.344Z,32.37
2019-02-21T07:13:31.041Z,34.57
2019-02-21T07:16:00.279Z,34.00
2019-02-21T07:18:29.531Z,33.87
2019-02-21T07:20:59.059Z,32.40
2019-02-21T07:23:32.671Z,35.83
2019-02-21T07:26:00.939Z,38.63
2019-02-21T07:28:30.356Z,36.03
2019-02-21T07:30:59.603Z,35.57
2019-02-21T07:33:29.070Z,34.47
2019-02-21T07:35:58.322Z,33.87
2019-02-21T07:38:27.513Z,33.43
2019-02-21T07:40:57.171Z,33.77
2019-02-21T07:43:26.393Z,36.07
2019-02-21T07:45:55.571Z,35.80
2019-02-21T07:48:24.771Z,35.90
2019-02-21T07:50:54.008Z,33.10
2019-02-21T07:53:23.218Z,35.03
2019-02-21T07:55:55.724Z,36.77
2019-02-21T07:58:24.341Z,36.03
2019-02-21T08:00:54.198Z,33.53
2019-02-21T08:03:32.009Z,33.17
2019-02-21T08:05:54.369Z,33.90
2019-02-21T08:08:23.945Z,32.17
2019-02-21T08:10:53.453Z,34.50
2019-02-21T08:13:22.800Z,34.87
2019-02-21T08:15:51.951Z,32.17
2019-02-21T08:18:21.279Z,33.07
2019-02-21T08:20:50.483Z,32.80
2019-02-21T08:23:19.674Z,31.80
2019-02-21T08:25:48.843Z,34.53
2019-02-21T08:28:18.034Z,33.57
2019-02-21T08:30:47.209Z,33.67
2019-02-21T08:33:21.083Z,34.87
2019-02-21T08:35:50.375Z,33.33
2019-02-21T08:38:19.564Z,34.07
2019-02-21T08:40:49.123Z,33.80
2019-02-21T08:43:18.758Z,34.50
2019-02-21T08:45:48.039Z,33.77
2019-02-21T08:48:17.301Z,35.33
2019-02-21T08:50:46.504Z,34.37
2019-02-21T08:53:15.720Z,32.83
2019-02-21T08:55:46.545Z,32.53
2019-02-21T08:58:15.793Z,34.17
2019-02-21T09:00:45.026Z,33.67
2019-02-21T09:03:14.332Z,33.53
2019-02-21T09:05:43.740Z,31.53
2019-02-21T09:08:13.057Z,32.43
2019-02-21T09:10:43.254Z,32.33
2019-02-21T09:13:12.426Z,32.83
2019-02-21T09:15:42.734Z,33.07
2019-02-21T09:18:12.144Z,33.07
2019-02-21T09:20:41.330Z,31.70
2019-02-21T09:23:10.915Z,32.90
2019-02-21T09:25:40.422Z,31.23
2019-02-21T09:28:09.662Z,32.67
2019-02-21T09:30:38.836Z,33.10
2019-02-21T09:33:16.990Z,33.17
2019-02-21T09:35:39.578Z,32.53
2019-02-21T09:38:08.934Z,33.87
2019-02-21T09:40:38.179Z,32.43
2019-02-21T09:43:10.022Z,31.20
2019-02-21T09:45:39.342Z,31.30
2019-02-21T09:48:08.616Z,31.83
2019-02-21T09:50:37.920Z,32.63
2019-02-21T09:53:07.586Z,33.03
2019-02-21T09:55:37.443Z,30.60
2019-02-21T09:58:06.658Z,34.60
2019-02-21T10:00:36.117Z,32.00
2019-02-21T10:03:05.480Z,30.83
2019-02-21T10:05:34.785Z,30.83
2019-02-21T10:08:04.120Z,33.27
2019-02-21T10:10:33.414Z,31.77
2019-02-21T10:13:02.764Z,31.27
2019-02-21T10:15:33.126Z,31.77
2019-02-21T10:18:02.636Z,31.03
2019-02-21T10:20:31.922Z,31.77
2019-02-21T10:23:02.374Z,30.13
2019-02-21T10:25:32.023Z,31.13
2019-02-21T10:28:01.370Z,32.57
2019-02-21T10:30:31.094Z,31.60
2019-02-21T10:33:00.280Z,31.10
2019-02-21T10:35:29.734Z,32.97
2019-02-21T10:37:59.026Z,30.10
2019-02-21T10:40:28.314Z,32.30
2019-02-21T10:42:58.199Z,33.90
2019-02-21T10:45:27.618Z,32.93
2019-02-21T10:47:56.920Z,33.67
2019-02-21T10:50:26.195Z,32.73
2019-02-21T10:52:55.460Z,32.30
2019-02-21T10:55:24.710Z,32.87
2019-02-21T10:57:53.910Z,31.90
2019-02-21T11:00:28.130Z,35.37
2019-02-21T11:02:57.436Z,31.17
2019-02-21T11:05:26.707Z,31.93
2019-02-21T11:07:56.066Z,32.40
2019-02-21T11:10:29.039Z,34.60
2019-02-21T11:12:59.897Z,31.43
2019-02-21T11:15:29.523Z,32.37
2019-02-21T11:17:58.758Z,31.93
2019-02-21T11:20:28.164Z,31.17
2019-02-21T11:22:57.426Z,31.03
2019-02-21T11:25:26.977Z,30.83
2019-02-21T11:27:56.280Z,30.13
2019-02-21T11:30:25.563Z,28.50
2019-02-21T11:32:54.824Z,28.27
2019-02-21T11:35:24.135Z,26.73
2019-02-21T11:37:53.420Z,25.43
2019-02-21T11:40:22.925Z,24.73
2019-02-21T11:42:53.848Z,25.40
2019-02-21T11:45:23.135Z,26.83
2019-02-21T11:47:52.402Z,24.67
2019-02-21T11:50:21.654Z,27.00
2019-02-21T11:52:50.864Z,25.43
2019-02-21T11:55:25.059Z,22.27
2019-02-21T11:57:54.579Z,23.23
2019-02-21T12:00:25.833Z,23.40
2019-02-21T12:02:55.077Z,22.67
2019-02-21T12:05:32.176Z,21.70
2019-02-21T12:07:55.589Z,20.97
2019-02-21T12:10:24.841Z,21.00
2019-02-21T12:12:54.123Z,22.07
2019-02-21T12:15:23.427Z,22.37
2019-02-21T12:17:52.891Z,22.00
2019-02-21T12:20:22.165Z,22.53
2019-02-21T12:22:51.453Z,22.27
2019-02-21T12:25:24.529Z,21.50
2019-02-21T12:27:53.763Z,23.80
2019-02-21T12:30:23.060Z,23.77
2019-02-21T12:32:52.326Z,22.77
2019-02-21T12:35:29.299Z,23.60
2019-02-21T12:37:52.787Z,24.27
2019-02-21T12:40:25.140Z,23.90
2019-02-21T12:42:54.391Z,24.37
2019-02-21T12:45:25.821Z,24.67
2019-02-21T12:47:55.032Z,24.40
2019-02-21T12:50:24.287Z,22.60
2019-02-21T12:52:53.729Z,22.93
2019-02-21T12:55:29.308Z,24.03
2019-02-21T12:57:53.981Z,24.97
2019-02-21T13:00:23.252Z,22.97
2019-02-21T13:02:52.529Z,24.00
2019-02-21T13:05:22.088Z,22.00
2019-02-21T13:07:52.512Z,19.97
2019-02-21T13:10:25.079Z,20.07
2019-02-21T13:12:54.343Z,20.47
2019-02-21T13:15:24.212Z,19.27
2019-02-21T13:17:53.491Z,20.07
2019-02-21T13:20:24.381Z,19.40
2019-02-21T13:22:53.663Z,19.90
2019-02-21T13:25:23.230Z,19.73
2019-02-21T13:27:52.697Z,19.93
2019-02-21T13:30:21.954Z,19.70
2019-02-21T13:32:51.194Z,19.30
2019-02-21T13:35:20.656Z,19.80
2019-02-21T13:37:49.935Z,19.43
2019-02-21T13:40:21.245Z,18.63
2019-02-21T13:42:49.992Z,18.20
2019-02-21T13:45:19.274Z,17.30
2019-02-21T13:47:48.612Z,15.97
2019-02-21T13:50:19.194Z,16.47
2019-02-21T13:52:48.713Z,15.60
2019-02-21T13:55:17.952Z,14.90
2019-02-21T13:57:47.228Z,15.60
2019-02-21T14:00:18.686Z,16.80
2019-02-21T14:02:47.852Z,15.93
2019-02-21T14:05:17.358Z,18.43
2019-02-21T14:07:46.648Z,16.60
2019-02-21T14:10:15.915Z,16.00
2019-02-21T14:12:45.165Z,16.03
2019-02-21T14:15:30.360Z,15.63
2019-02-21T14:17:59.605Z,17.23
2019-02-21T14:20:28.886Z,16.90
2019-02-21T14:22:58.168Z,18.50
2019-02-21T14:25:28.425Z,16.27
2019-02-21T14:27:58.312Z,17.10
2019-02-21T14:30:27.527Z,18.00
2019-02-21T14:32:56.814Z,18.10
2019-02-21T14:35:26.090Z,16.80
2019-02-21T14:37:55.590Z,17.77
2019-02-21T14:40:24.850Z,16.43
2019-02-21T14:42:54.311Z,18.30
2019-02-21T14:45:25.458Z,18.50
2019-02-21T14:47:55.113Z,18.83
2019-02-21T14:50:24.963Z,19.00
2019-02-21T14:52:54.246Z,19.97
2019-02-21T14:55:23.555Z,20.10
2019-02-21T14:57:52.810Z,20.53
2019-02-21T15:00:28.960Z,20.30
2019-02-21T15:02:58.223Z,21.07
2019-02-21T15:05:28.515Z,24.17
2019-02-21T15:07:58.740Z,24.03
2019-02-21T15:10:27.937Z,19.67
2019-02-21T15:12:57.187Z,20.77
2019-02-21T15:15:26.850Z,20.67
2019-02-21T15:18:07.032Z,20.47
2019-02-21T15:20:36.458Z,19.87
2019-02-21T15:22:58.192Z,19.87
2019-02-21T15:25:27.528Z,18.70
2019-02-21T15:27:56.801Z,19.43
2019-02-21T15:30:26.256Z,19.33
2019-02-21T15:32:55.841Z,20.43
2019-02-21T15:35:25.103Z,18.93
2019-02-21T15:37:54.592Z,19.87
2019-02-21T15:40:23.915Z,20.77
2019-02-21T15:42:53.234Z,20.90
2019-02-21T15:45:27.941Z,20.40
2019-02-21T15:47:57.133Z,20.17
2019-02-21T15:50:26.365Z,19.70
2019-02-21T15:52:56.619Z,21.10
2019-02-21T15:55:25.873Z,20.73
2019-02-21T15:58:03.339Z,19.73
2019-02-21T16:00:26.369Z,21.43
2019-02-21T16:02:56.811Z,21.27
2019-02-21T16:05:26.083Z,20.63
2019-02-21T16:07:55.343Z,19.93
2019-02-21T16:10:26.847Z,20.70
2019-02-21T16:12:56.851Z,20.07
2019-02-21T16:15:26.357Z,22.13
2019-02-21T16:17:55.869Z,20.87
2019-02-21T16:20:25.057Z,21.47
2019-02-21T16:22:54.371Z,21.10
2019-02-21T16:25:31.320Z,21.50
2019-02-21T16:28:00.720Z,20.63
2019-02-21T16:30:29.886Z,21.70
2019-02-21T16:32:59.412Z,21.23
2019-02-21T16:35:28.702Z,19.93
2019-02-21T16:37:57.945Z,21.27
2019-02-21T16:40:27.171Z,21.00
2019-02-21T16:42:56.529Z,21.17
2019-02-21T16:45:25.768Z,22.43
2019-02-21T16:47:55.232Z,22.00
2019-02-21T16:50:29.810Z,22.13
2019-02-21T16:52:55.652Z,21.23
2019-02-21T16:55:25.191Z,21.27
2019-02-21T16:57:54.387Z,22.67
2019-02-21T17:00:24.388Z,22.03
2019-02-21T17:02:53.710Z,22.23
2019-02-21T17:05:22.972Z,22.80
2019-02-21T17:07:52.427Z,22.30
2019-02-21T17:10:21.659Z,22.73
2019-02-21T17:12:50.826Z,21.43
2019-02-21T17:15:20.029Z,22.13
2019-02-21T17:17:49.573Z,22.30
2019-02-21T17:20:21.421Z,24.00
2019-02-21T17:22:50.961Z,24.10
2019-02-21T17:25:20.229Z,23.47
2019-02-21T17:27:50.556Z,22.87
2019-02-21T17:30:19.949Z,24.60
2019-02-21T17:32:49.489Z,22.47
2019-02-21T17:35:18.762Z,23.80
2019-02-21T17:37:47.922Z,21.87
2019-02-21T17:40:22.455Z,24.53
2019-02-21T17:42:51.700Z,22.90
2019-02-21T17:45:21.303Z,25.40
2019-02-21T17:47:50.565Z,23.20
2019-02-21T17:50:22.843Z,23.17
2019-02-21T17:52:53.697Z,24.30
2019-02-21T17:55:22.929Z,25.40
2019-02-21T17:57:52.158Z,25.07
2019-02-21T18:00:38.748Z,26.30
2019-02-21T18:03:07.978Z,24.03
2019-02-21T18:05:37.430Z,26.13
2019-02-21T18:08:06.701Z,23.83
2019-02-21T18:10:35.881Z,24.67
2019-02-21T18:13:05.238Z,24.00
2019-02-21T18:15:35.520Z,26.00
2019-02-21T18:18:05.990Z,24.93
2019-02-21T18:20:35.274Z,26.93
2019-02-21T18:23:04.455Z,25.73
2019-02-21T18:25:46.122Z,27.10
2019-02-21T18:28:15.375Z,24.53
2019-02-21T18:30:44.570Z,25.80
2019-02-21T18:33:13.783Z,25.70
2019-02-21T18:35:43.107Z,26.20
2019-02-21T18:38:12.741Z,26.80
2019-02-21T18:40:42.159Z,26.43
2019-02-21T18:43:11.650Z,27.53
2019-02-21T18:45:40.822Z,26.33
2019-02-21T18:48:10.103Z,26.33
2019-02-21T18:50:39.530Z,26.27
2019-02-21T18:53:08.698Z,27.87
2019-02-21T18:55:37.924Z,27.10
2019-02-21T18:58:07.150Z,27.37
2019-02-21T19:00:36.349Z,27.03
2019-02-21T19:03:05.573Z,28.77
2019-02-21T19:05:36.202Z,29.27
2019-02-21T19:08:05.960Z,28.27
2019-02-21T19:10:35.307Z,27.00
2019-02-21T19:13:07.342Z,27.87
2019-02-21T19:15:35.746Z,29.17
2019-02-21T19:18:05.055Z,28.80
2019-02-21T19:20:34.483Z,32.00
2019-02-21T19:23:03.749Z,30.00
2019-02-21T19:25:32.999Z,30.20
2019-02-21T19:28:02.189Z,30.90
2019-02-21T19:30:34.811Z,30.80
2019-02-21T19:33:03.996Z,31.67
2019-02-21T19:35:33.263Z,33.30
2019-02-21T19:38:09.748Z,31.10
2019-02-21T19:40:33.365Z,31.27
2019-02-21T19:43:03.715Z,30.27
2019-02-21T19:45:32.981Z,31.60
2019-02-21T19:48:04.116Z,30.63
2019-02-21T19:50:33.151Z,33.03
2019-02-21T19:53:02.317Z,31.27
2019-02-21T19:55:31.534Z,31.80
2019-02-21T19:58:00.807Z,30.63
2019-02-21T20:00:31.932Z,29.80
2019-02-21T20:03:01.189Z,29.07
2019-02-21T20:05:30.460Z,29.30
2019-02-21T20:08:08.283Z,29.83
2019-02-21T20:10:30.823Z,30.33
2019-02-21T20:13:01.628Z,29.07
2019-02-21T20:15:31.327Z,28.80
2019-02-21T20:18:00.567Z,30.93
2019-02-21T20:20:30.479Z,30.80
2019-02-21T20:22:59.691Z,30.03
2019-02-21T20:25:29.211Z,30.80
2019-02-21T20:27:58.471Z,30.80
2019-02-21T20:30:27.739Z,32.40
2019-02-21T20:32:56.959Z,33.73
2019-02-21T20:35:26.188Z,34.10
2019-02-21T20:37:55.417Z,32.20
2019-02-21T20:40:24.652Z,34.53
2019-02-21T20:42:53.911Z,33.57
2019-02-21T20:45:24.796Z,32.43
2019-02-21T20:47:55.341Z,33.40
2019-02-21T20:50:25.015Z,33.20
2019-02-21T20:52:54.250Z,34.90
2019-02-21T20:55:23.537Z,33.60
2019-02-21T20:57:52.817Z,34.90
2019-02-21T21:00:22.076Z,33.93
2019-02-21T21:02:51.358Z,34.67
2019-02-21T21:05:20.649Z,33.60
2019-02-21T21:07:49.934Z,34.07
2019-02-21T21:10:19.362Z,34.27
2019-02-21T21:12:48.806Z,34.40
2019-02-21T21:15:18.012Z,33.57
2019-02-21T21:17:47.240Z,33.13
2019-02-21T21:20:17.485Z,33.97
2019-02-21T21:22:46.884Z,33.03
2019-02-21T21:25:17.420Z,34.17
2019-02-21T21:27:46.868Z,33.77
2019-02-21T21:30:17.897Z,34.10
2019-02-21T21:32:47.230Z,33.90
2019-02-21T21:35:16.505Z,36.30
2019-02-21T21:37:45.801Z,32.90
2019-02-21T21:40:18.715Z,33.77
2019-02-21T21:42:47.943Z,33.60
2019-02-21T21:45:17.946Z,33.47
2019-02-21T21:47:47.164Z,31.37
2019-02-21T21:50:18.015Z,32.50
2019-02-21T21:52:47.384Z,33.90
2019-02-21T21:55:16.576Z,31.67
2019-02-21T21:57:45.824Z,31.50
2019-02-21T22:00:20.684Z,34.83
2019-02-21T22:02:50.228Z,35.67
2019-02-21T22:05:19.489Z,33.23
2019-02-21T22:07:49.440Z,31.40
2019-02-21T22:10:19.137Z,33.47
2019-02-21T22:12:48.422Z,32.47
2019-02-21T22:15:24.240Z,33.30
2019-02-21T22:17:53.834Z,34.60
2019-02-21T22:20:23.022Z,34.50
2019-02-21T22:22:52.228Z,33.10
2019-02-21T22:25:21.464Z,32.47
2019-02-21T22:27:50.659Z,30.97
2019-02-21T22:30:20.505Z,30.63
2019-02-21T22:32:49.770Z,29.63
2019-02-21T22:35:18.966Z,30.53
2019-02-21T22:37:48.254Z,31.47
2019-02-21T22:40:18.726Z,31.53
2019-02-21T22:42:47.929Z,31.57
2019-02-21T22:45:17.123Z,30.27
2019-02-21T22:47:46.326Z,30.73
2019-02-21T22:50:18.162Z,29.87
2019-02-21T22:52:48.397Z,32.47
2019-02-21T22:55:17.643Z,31.83
2019-02-21T22:57:46.873Z,30.03
2019-02-21T23:00:47.969Z,30.93
2019-02-21T23:03:18.890Z,30.40
2019-02-21T23:05:58.566Z,30.80
2019-02-21T23:08:44.015Z,31.07
2019-02-21T23:11:13.184Z,31.17
2019-02-21T23:13:42.359Z,29.73
2019-02-21T23:16:11.641Z,33.60
2019-02-21T23:18:40.881Z,31.07
2019-02-21T23:21:10.056Z,32.83
2019-02-21T23:23:39.631Z,31.83
2019-02-21T23:26:08.947Z,31.57
2019-02-21T23:28:38.133Z,30.10
2019-02-21T23:31:07.329Z,31.57
2019-02-21T23:33:38.215Z,31.53
2019-02-21T23:36:07.390Z,31.23
2019-02-21T23:38:36.667Z,31.73
2019-02-21T23:41:06.809Z,31.43
2019-02-21T23:43:35.983Z,29.90
2019-02-21T23:46:06.167Z,31.30
2019-02-21T23:48:35.459Z,31.87
2019-02-21T23:51:04.733Z,34.60
2019-02-21T23:53:34.006Z,32.33
2019-02-21T23:56:03.251Z,34.67
2019-02-21T23:58:32.767Z,31.80
